createdAt,value
2023-03-12T00:00:33.942Z,8.00
2023-03-12T00:04:43.093Z,8.43
2023-03-12T00:08:53.530Z,8.77
2023-03-12T00:13:03.853Z,8.17
2023-03-12T00:17:14.267Z,8.63
2023-03-12T00:21:24.128Z,9.50
2023-03-12T00:25:33.312Z,7.67
2023-03-12T00:29:42.301Z,8.27
2023-03-12T00:33:52.788Z,7.77
2023-03-12T00:38:01.834Z,8.77
2023-03-12T00:42:10.835Z,8.90
2023-03-12T00:46:20.423Z,7.93
2023-03-12T00:50:31.095Z,9.33
2023-03-12T00:54:40.125Z,10.03
2023-03-12T00:58:49.150Z,9.43
2023-03-12T01:02:58.201Z,8.53
2023-03-12T01:07:08.785Z,8.63
2023-03-12T01:11:19.900Z,9.00
2023-03-12T01:15:29.443Z,8.33
2023-03-12T01:19:38.590Z,8.67
2023-03-12T01:23:49.165Z,8.33
2023-03-12T01:27:58.591Z,7.70
2023-03-12T01:32:08.460Z,8.07
2023-03-12T01:36:19.459Z,7.60
2023-03-12T01:40:30.071Z,8.93
2023-03-12T01:44:53.450Z,8.00
2023-03-12T01:49:06.784Z,6.90
2023-03-12T01:53:16.094Z,7.17
2023-03-12T01:57:33.027Z,7.73
2023-03-12T02:01:43.733Z,7.00
2023-03-12T02:05:57.443Z,7.37
2023-03-12T02:10:07.706Z,7.00
2023-03-12T02:14:18.490Z,8.13
2023-03-12T02:18:27.802Z,8.13
2023-03-12T02:22:39.947Z,6.83
2023-03-12T02:26:50.865Z,8.13
2023-03-12T02:31:02.195Z,7.37
2023-03-12T02:35:11.767Z,7.40
2023-03-12T02:39:21.115Z,7.37
2023-03-12T02:43:31.857Z,7.03
2023-03-12T02:47:40.857Z,7.17
2023-03-12T02:51:50.617Z,7.53
2023-03-12T02:55:59.734Z,7.90
2023-03-12T03:00:13.390Z,8.93
2023-03-12T03:04:22.461Z,9.13
2023-03-12T03:08:31.723Z,7.53
2023-03-12T03:12:40.710Z,8.23
2023-03-12T03:16:51.337Z,6.90
2023-03-12T03:21:02.189Z,7.63
2023-03-12T03:25:12.743Z,7.90
2023-03-12T03:29:22.253Z,8.20
2023-03-12T03:33:35.178Z,7.43
2023-03-12T03:37:44.997Z,8.37
2023-03-12T03:41:53.965Z,7.97
2023-03-12T03:46:05.165Z,8.50
2023-03-12T03:50:16.005Z,7.77
2023-03-12T03:54:25.091Z,8.87
2023-03-12T03:58:34.143Z,7.73
2023-03-12T04:02:43.104Z,8.60
2023-03-12T04:06:53.753Z,8.63
2023-03-12T04:11:07.733Z,7.80
2023-03-12T04:15:16.931Z,8.10
2023-03-12T04:19:26.008Z,9.00
2023-03-12T04:23:37.121Z,8.10
2023-03-12T04:27:46.235Z,8.80
2023-03-12T04:31:55.507Z,9.00
2023-03-12T04:36:04.998Z,9.70
2023-03-12T04:40:15.878Z,9.20
2023-03-12T04:44:24.984Z,8.73
2023-03-12T04:48:34.181Z,8.50
2023-03-12T04:52:43.197Z,8.80
2023-03-12T04:56:53.858Z,7.37
2023-03-12T05:01:03.125Z,8.40
2023-03-12T05:05:13.586Z,9.00
2023-03-12T05:09:22.575Z,8.30
2023-03-12T05:13:33.028Z,9.07
2023-03-12T05:17:42.049Z,8.63
2023-03-12T05:21:51.266Z,9.10
2023-03-12T05:26:00.212Z,8.63
2023-03-12T05:30:12.378Z,8.97
2023-03-12T05:34:21.429Z,10.83
2023-03-12T05:38:31.454Z,10.53
2023-03-12T05:42:40.726Z,10.53
2023-03-12T05:46:51.282Z,8.50
2023-03-12T05:51:00.336Z,8.57
2023-03-12T05:55:10.613Z,8.13
2023-03-12T05:59:19.811Z,9.43
2023-03-12T06:03:30.743Z,9.20
2023-03-12T06:07:39.886Z,9.00
2023-03-12T06:11:49.051Z,12.03
2023-03-12T06:16:04.830Z,9.10
2023-03-12T06:20:15.835Z,10.53
2023-03-12T06:24:24.958Z,8.90
2023-03-12T06:28:34.697Z,9.90
2023-03-12T06:32:43.775Z,9.57
2023-03-12T06:36:54.363Z,9.93
2023-03-12T06:41:05.257Z,8.77
2023-03-12T06:45:14.449Z,9.03
2023-03-12T06:49:23.585Z,8.10
2023-03-12T06:53:34.528Z,8.37
2023-03-12T06:57:43.665Z,8.17
2023-03-12T07:01:52.696Z,8.00
2023-03-12T07:06:02.062Z,7.67
2023-03-12T07:10:14.314Z,7.43
2023-03-12T07:14:23.400Z,7.53
2023-03-12T07:18:32.583Z,8.77
2023-03-12T07:22:41.609Z,7.53
2023-03-12T07:26:52.255Z,7.27
2023-03-12T07:31:05.232Z,8.60
2023-03-12T07:35:14.392Z,8.73
2023-03-12T07:39:23.634Z,9.07
2023-03-12T07:43:34.231Z,8.53
2023-03-12T07:47:43.343Z,7.80
2023-03-12T07:51:52.550Z,9.07
2023-03-12T07:56:01.748Z,8.50
2023-03-12T08:00:14.025Z,8.27
2023-03-12T08:04:23.840Z,8.43
2023-03-12T08:08:33.437Z,9.17
2023-03-12T08:12:42.421Z,9.07
2023-03-12T08:16:52.961Z,9.40
2023-03-12T08:21:02.104Z,9.20
2023-03-12T08:25:12.148Z,8.20
2023-03-12T08:29:21.177Z,7.83
2023-03-12T08:33:31.805Z,7.30
2023-03-12T08:37:41.481Z,7.30
2023-03-12T08:41:52.027Z,6.13
2023-03-12T08:46:03.041Z,7.40
2023-03-12T08:50:15.657Z,9.03
2023-03-12T08:54:24.769Z,8.57
2023-03-12T08:58:33.922Z,9.27
2023-03-12T09:02:44.898Z,9.00
2023-03-12T09:06:55.655Z,7.67
2023-03-12T09:11:04.798Z,7.30
2023-03-12T09:15:14.210Z,7.10
2023-03-12T09:19:23.269Z,7.63
2023-03-12T09:23:33.906Z,7.40
2023-03-12T09:27:44.480Z,7.27
2023-03-12T09:31:53.748Z,8.10
2023-03-12T09:36:03.951Z,6.27
2023-03-12T09:40:19.392Z,6.87
2023-03-12T09:44:33.816Z,6.90
2023-03-12T09:48:44.307Z,7.37
2023-03-12T09:53:01.225Z,7.53
2023-03-12T09:57:19.583Z,6.33
2023-03-12T10:01:39.059Z,6.57
2023-03-12T10:05:56.278Z,6.00
2023-03-12T10:10:27.082Z,5.73
2023-03-12T10:14:51.527Z,6.03
2023-03-12T10:19:16.127Z,5.13
2023-03-12T10:23:35.287Z,4.93
2023-03-12T10:27:44.964Z,4.80
2023-03-12T10:32:00.733Z,4.37
2023-03-12T10:36:20.748Z,4.97
2023-03-12T10:40:32.417Z,4.70
2023-03-12T10:44:41.829Z,3.83
2023-03-12T10:48:52.303Z,4.87
2023-03-12T10:53:21.834Z,5.03
2023-03-12T10:57:47.330Z,4.57
2023-03-12T11:01:56.760Z,3.30
2023-03-12T11:06:08.577Z,3.80
2023-03-12T11:10:27.952Z,3.93
2023-03-12T11:14:48.484Z,3.10
2023-03-12T11:19:00.260Z,2.40
2023-03-12T11:23:17.469Z,3.83
2023-03-12T11:27:37.964Z,3.40
2023-03-12T11:31:58.367Z,2.87
2023-03-12T11:36:31.021Z,3.77
2023-03-12T11:40:58.685Z,3.60
2023-03-12T11:45:19.359Z,3.27
2023-03-12T11:49:48.583Z,3.17
2023-03-12T11:54:27.321Z,3.20
2023-03-12T11:58:57.589Z,3.53
2023-03-12T12:03:29.795Z,2.67
2023-03-12T12:07:55.671Z,2.83
2023-03-12T12:12:22.413Z,3.50
2023-03-12T12:16:50.928Z,3.50
2023-03-12T12:21:06.506Z,3.43
2023-03-12T12:25:36.099Z,4.03
2023-03-12T12:30:05.115Z,3.90
2023-03-12T12:34:36.198Z,4.00
2023-03-12T12:38:49.026Z,4.20
2023-03-12T12:43:08.458Z,4.23
2023-03-12T12:47:21.364Z,3.53
2023-03-12T12:51:35.219Z,4.10
2023-03-12T12:55:51.983Z,4.07
2023-03-12T13:00:23.109Z,4.33
2023-03-12T13:04:36.101Z,3.43
2023-03-12T13:09:14.651Z,5.07
2023-03-12T13:13:27.408Z,3.43
2023-03-12T13:18:04.772Z,3.63
2023-03-12T13:22:23.040Z,3.30
2023-03-12T13:26:41.488Z,3.80
2023-03-12T13:30:52.544Z,3.77
2023-03-12T13:35:29.595Z,3.87
2023-03-12T13:39:39.325Z,3.03
2023-03-12T13:43:57.940Z,3.33
2023-03-12T13:48:07.811Z,3.23
2023-03-12T13:52:27.727Z,3.17
2023-03-12T13:56:37.055Z,3.00
2023-03-12T14:00:52.952Z,3.07
2023-03-12T14:05:09.053Z,3.10
2023-03-12T14:09:29.950Z,2.07
2023-03-12T14:14:05.464Z,2.87
2023-03-12T14:18:20.718Z,2.40
2023-03-12T14:22:33.735Z,2.63
2023-03-12T14:26:48.176Z,2.43
2023-03-12T14:31:01.772Z,2.53
2023-03-12T14:35:19.715Z,2.27
2023-03-12T14:39:34.091Z,2.30
2023-03-12T14:43:46.694Z,2.43
2023-03-12T14:47:57.965Z,1.50
2023-03-12T14:52:07.711Z,1.63
2023-03-12T14:56:25.225Z,2.17
2023-03-12T15:00:36.340Z,2.33
2023-03-12T15:04:46.548Z,2.47
2023-03-12T15:08:55.828Z,3.10
2023-03-12T15:13:06.105Z,2.80
2023-03-12T15:17:19.076Z,3.30
2023-03-12T15:21:28.672Z,3.10
2023-03-12T15:25:37.733Z,4.00
2023-03-12T15:29:47.005Z,4.90
2023-03-12T15:34:06.047Z,4.50
2023-03-12T15:38:17.699Z,5.80
2023-03-12T15:42:28.622Z,4.97
2023-03-12T15:46:38.056Z,5.27
2023-03-12T15:50:49.015Z,6.07
2023-03-12T15:55:07.550Z,6.73
2023-03-12T15:59:26.284Z,6.50
2023-03-12T16:03:35.378Z,7.33
2023-03-12T16:07:46.246Z,7.83
2023-03-12T16:11:56.800Z,9.17
2023-03-12T16:16:06.242Z,9.97
2023-03-12T16:20:18.095Z,10.00
2023-03-12T16:24:31.873Z,9.70
2023-03-12T16:28:41.339Z,10.73
2023-03-12T16:32:50.567Z,11.60
2023-03-12T16:37:00.059Z,11.13
2023-03-12T16:41:14.552Z,12.60
2023-03-12T16:45:24.469Z,11.93
2023-03-12T16:49:33.672Z,11.27
2023-03-12T16:53:42.832Z,13.87
2023-03-12T16:57:55.818Z,13.83
2023-03-12T17:02:05.721Z,12.37
2023-03-12T17:06:18.077Z,14.37
2023-03-12T17:10:27.837Z,13.13
2023-03-12T17:14:39.142Z,13.23
2023-03-12T17:18:48.431Z,13.43
2023-03-12T17:22:57.449Z,14.20
2023-03-12T17:27:06.513Z,12.93
2023-03-12T17:31:17.151Z,13.40
2023-03-12T17:35:26.433Z,12.47
2023-03-12T17:39:36.755Z,12.43
2023-03-12T17:43:46.420Z,12.47
2023-03-12T17:47:57.087Z,13.57
2023-03-12T17:52:06.338Z,12.27
2023-03-12T17:56:18.193Z,12.00
2023-03-12T18:00:28.314Z,13.07
2023-03-12T18:04:40.346Z,12.87
2023-03-12T18:08:49.689Z,11.97
2023-03-12T18:12:59.144Z,12.27
2023-03-12T18:17:08.283Z,12.10
2023-03-12T18:21:19.016Z,12.07
2023-03-12T18:25:28.182Z,11.67
2023-03-12T18:29:37.306Z,12.17
2023-03-12T18:33:46.602Z,12.47
2023-03-12T18:37:57.397Z,11.60
2023-03-12T18:42:06.879Z,12.47
2023-03-12T18:46:16.328Z,11.93
2023-03-12T18:50:25.952Z,13.30
2023-03-12T18:54:36.727Z,12.30
2023-03-12T18:58:45.991Z,11.60
2023-03-12T19:02:55.247Z,12.60
2023-03-12T19:07:05.578Z,11.20
2023-03-12T19:11:17.778Z,11.53
2023-03-12T19:15:27.414Z,11.30
2023-03-12T19:19:36.567Z,12.43
2023-03-12T19:23:45.839Z,12.10
2023-03-12T19:27:56.566Z,10.90
2023-03-12T19:32:05.941Z,10.83
2023-03-12T19:36:15.175Z,11.73
2023-03-12T19:40:24.426Z,11.00
2023-03-12T19:44:36.837Z,11.20
2023-03-12T19:48:46.117Z,12.60
2023-03-12T19:52:55.280Z,12.30
2023-03-12T19:57:04.513Z,12.67
2023-03-12T20:01:15.260Z,12.13
2023-03-12T20:05:24.693Z,10.80
2023-03-12T20:09:35.058Z,12.90
2023-03-12T20:13:44.434Z,11.97
2023-03-12T20:17:57.210Z,10.97
2023-03-12T20:22:06.490Z,12.53
2023-03-12T20:26:16.275Z,12.43
2023-03-12T20:30:25.761Z,10.53
2023-03-12T20:34:37.619Z,10.63
2023-03-12T20:38:49.615Z,11.23
2023-03-12T20:42:58.791Z,10.83
2023-03-12T20:47:07.890Z,10.83
2023-03-12T20:51:18.605Z,11.90
2023-03-12T20:55:27.986Z,10.73
2023-03-12T20:59:37.355Z,10.13
2023-03-12T21:03:46.633Z,10.70
2023-03-12T21:07:58.984Z,12.27
2023-03-12T21:12:08.443Z,11.30
2023-03-12T21:16:17.613Z,12.43
2023-03-12T21:20:26.727Z,11.60
2023-03-12T21:24:37.641Z,10.07
2023-03-12T21:28:46.669Z,10.73
2023-03-12T21:32:55.760Z,11.63
2023-03-12T21:37:04.949Z,10.67
2023-03-12T21:41:17.176Z,10.93
2023-03-12T21:45:26.343Z,11.37
2023-03-12T21:49:36.078Z,11.10
2023-03-12T21:53:45.298Z,10.70
2023-03-12T21:57:55.844Z,10.60
2023-03-12T22:02:04.911Z,10.60
2023-03-12T22:06:15.670Z,10.10
2023-03-12T22:10:24.815Z,9.13
2023-03-12T22:14:35.376Z,10.13
2023-03-12T22:18:46.316Z,10.03
2023-03-12T22:22:55.534Z,9.77
2023-03-12T22:27:07.675Z,9.93
2023-03-12T22:31:19.381Z,9.37
2023-03-12T22:35:28.568Z,11.07
2023-03-12T22:39:37.903Z,10.53
2023-03-12T22:43:48.047Z,10.93
2023-03-12T22:47:58.725Z,9.63
2023-03-12T22:52:08.423Z,11.07
2023-03-12T22:56:17.931Z,11.57
2023-03-12T23:00:28.553Z,10.33
2023-03-12T23:04:39.329Z,9.77
2023-03-12T23:08:49.223Z,10.30
2023-03-12T23:12:58.431Z,10.33
2023-03-12T23:17:07.633Z,10.03
2023-03-12T23:21:20.686Z,9.97
2023-03-12T23:25:29.884Z,9.83
2023-03-12T23:29:39.021Z,9.67
2023-03-12T23:33:48.249Z,10.10
2023-03-12T23:37:59.531Z,9.27
2023-03-12T23:42:09.229Z,8.97
2023-03-12T23:46:18.984Z,9.23
2023-03-12T23:50:28.302Z,9.03
2023-03-12T23:54:40.305Z,9.33
2023-03-12T23:58:50.685Z,8.53
